Time;durP1;ratioP1;P1;durP2;ratioP2;P2;SDS_P1;SDS_P2;PMS_P1;PMS_P2;Temp;Humidity;BMP_temperature;BMP_pressure;BME280_temperature;BME280_humidity;BME280_pressure;Samples;Min_cycle;Max_cycle;Signal;HPM_P1;HPM_P2
2023/10/18 00:00:50;;;;;;;14.25;6.35;;;;;;;;;;5840977;28;20108;-67
2023/10/18 00:03:41;;;;;;;6.68;4.32;;;;;;;;;;5827385;28;20053;-67
2023/10/18 00:06:32;;;;;;;16.50;8.35;;;;;;;;;;5818245;28;20181;-67
2023/10/18 00:12:45;;;;;;;16.38;7.50;;;;;;;;;;5818000;28;20424;-67
2023/10/18 00:15:37;;;;;;;27.55;9.73;;;;;;;;;;5834335;28;20046;-67
2023/10/18 00:18:28;;;;;;;10.85;6.53;;;;;;;;;;5818049;28;20054;-67
2023/10/18 00:21:19;;;;;;;21.65;6.78;;;;;;;;;;5818992;28;20046;-67
2023/10/18 00:24:10;;;;;;;6.68;4.38;;;;;;;;;;5818958;28;20061;-67
2023/10/18 00:27:00;;;;;;;12.18;5.63;;;;;;;;;;5834665;28;20057;-66
2023/10/18 00:29:54;;;;;;;18.58;7.95;;;;;;;;;;5819163;28;20050;-67
2023/10/18 00:32:45;;;;;;;72.32;26.38;;;;;;;;;;5817570;28;20050;-67
2023/10/18 00:35:36;;;;;;;50.22;16.58;;;;;;;;;;5833801;28;20046;-67
2023/10/18 00:38:28;;;;;;;184.35;54.28;;;;;;;;;;5817486;28;20389;-67
2023/10/18 00:41:22;;;;;;;122.53;31.33;;;;;;;;;;5833631;28;20415;-67
2023/10/18 00:44:13;;;;;;;41.78;11.70;;;;;;;;;;5832940;28;20439;-67
2023/10/18 00:47:04;;;;;;;30.60;9.45;;;;;;;;;;5817377;28;20051;-67
2023/10/18 00:49:55;;;;;;;8.82;4.88;;;;;;;;;;5819021;28;20050;-67
2023/10/18 00:52:46;;;;;;;5.13;3.85;;;;;;;;;;5833409;28;20042;-66
2023/10/18 00:55:37;;;;;;;4.65;3.85;;;;;;;;;;5833355;28;20050;-67
2023/10/18 00:58:34;;;;;;;9.70;4.53;;;;;;;;;;5818432;28;20050;-66
2023/10/18 01:01:25;;;;;;;5.85;2.80;;;;;;;;;;5817096;28;20053;-66
2023/10/18 01:04:15;;;;;;;6.38;3.20;;;;;;;;;;5817050;28;20147;-67
2023/10/18 01:07:14;;;;;;;10.15;4.72;;;;;;;;;;5816816;28;20081;-67
2023/10/18 01:10:09;;;;;;;23.08;7.28;;;;;;;;;;5817189;28;20054;-68
2023/10/18 01:13:01;;;;;;;20.13;9.07;;;;;;;;;;5818587;28;20149;-66
2023/10/18 01:15:52;;;;;;;16.27;7.43;;;;;;;;;;5818299;28;20038;-67
2023/10/18 01:18:44;;;;;;;27.88;10.52;;;;;;;;;;5818034;28;20085;-66
2023/10/18 01:21:35;;;;;;;16.65;5.90;;;;;;;;;;5832783;28;20051;-67
2023/10/18 01:24:36;;;;;;;26.67;10.32;;;;;;;;;;5816686;28;20054;-67
2023/10/18 01:27:27;;;;;;;13.95;5.93;;;;;;;;;;5816582;28;20047;-67
2023/10/18 01:30:19;;;;;;;14.70;5.10;;;;;;;;;;5816531;28;20401;-66
2023/10/18 01:33:10;;;;;;;5.82;3.72;;;;;;;;;;5817845;28;20208;-67
2023/10/18 01:36:01;;;;;;;10.68;3.97;;;;;;;;;;5816512;28;20080;-68
2023/10/18 01:38:53;;;;;;;28.27;8.70;;;;;;;;;;5816949;28;20487;-67
2023/10/18 01:42:05;;;;;;;40.97;11.10;;;;;;;;;;5816148;28;20054;-66
2023/10/18 01:44:58;;;;;;;12.50;5.47;;;;;;;;;;5817879;28;20046;-67
2023/10/18 01:47:50;;;;;;;7.18;4.22;;;;;;;;;;5817349;28;20365;-66
2023/10/18 01:50:46;;;;;;;5.35;3.80;;;;;;;;;;5816099;28;20061;-67
2023/10/18 01:53:42;;;;;;;8.38;3.58;;;;;;;;;;5815629;28;20053;-66
2023/10/18 01:56:34;;;;;;;7.70;4.15;;;;;;;;;;5817420;28;20046;-66
2023/10/18 01:59:28;;;;;;;20.02;5.22;;;;;;;;;;5815765;28;20924;-66
2023/10/18 02:02:20;;;;;;;5.75;3.65;;;;;;;;;;5816481;28;20164;-67
2023/10/18 02:05:15;;;;;;;7.72;3.83;;;;;;;;;;5800029;28;20543;-67
2023/10/18 02:08:06;;;;;;;7.43;5.15;;;;;;;;;;5815978;28;20054;-68
2023/10/18 02:10:56;;;;;;;11.32;4.88;;;;;;;;;;5817716;28;20130;-66
2023/10/18 02:13:47;;;;;;;15.45;4.40;;;;;;;;;;5815783;28;20046;-66
2023/10/18 02:16:39;;;;;;;12.40;3.53;;;;;;;;;;5815878;28;20420;-67
2023/10/18 02:19:31;;;;;;;5.28;3.35;;;;;;;;;;5817092;28;20047;-67
2023/10/18 02:22:22;;;;;;;10.00;5.60;;;;;;;;;;5815660;28;20097;-67
2023/10/18 02:25:30;;;;;;;5.40;3.80;;;;;;;;;;5832120;28;20050;-67
2023/10/18 02:28:23;;;;;;;8.65;4.97;;;;;;;;;;5815978;28;20484;-67
2023/10/18 02:31:15;;;;;;;12.77;4.88;;;;;;;;;;5815562;28;20050;-67
2023/10/18 02:34:06;;;;;;;10.90;5.18;;;;;;;;;;5831797;28;20141;-68
2023/10/18 02:37:16;;;;;;;6.38;4.18;;;;;;;;;;5815751;28;20073;-67
2023/10/18 02:40:07;;;;;;;18.67;5.85;;;;;;;;;;5815492;28;20046;-67
2023/10/18 02:43:05;;;;;;;8.18;4.43;;;;;;;;;;5816032;28;20053;-67
2023/10/18 02:45:56;;;;;;;8.50;5.13;;;;;;;;;;5815999;28;20133;-67
2023/10/18 02:48:50;;;;;;;11.57;5.28;;;;;;;;;;5831527;28;20042;-67
2023/10/18 02:51:43;;;;;;;7.70;4.88;;;;;;;;;;5815597;28;20061;-66
2023/10/18 02:54:35;;;;;;;21.85;4.45;;;;;;;;;;5815839;28;20046;-66
2023/10/18 02:57:26;;;;;;;8.55;4.30;;;;;;;;;;5815427;28;20132;-66
2023/10/18 03:00:17;;;;;;;10.10;3.58;;;;;;;;;;5799514;28;20508;-66
2023/10/18 03:03:09;;;;;;;10.73;4.10;;;;;;;;;;5816597;28;20070;-67
2023/10/18 03:06:13;;;;;;;16.95;6.72;;;;;;;;;;5821284;28;20075;-67
2023/10/18 03:12:14;;;;;;;23.95;7.15;;;;;;;;;;5819828;28;20073;-67
2023/10/18 03:15:11;;;;;;;23.48;8.07;;;;;;;;;;5818919;28;20050;-67
2023/10/18 03:18:03;;;;;;;12.27;4.82;;;;;;;;;;5820830;28;20050;-68
2023/10/18 03:20:57;;;;;;;7.10;4.72;;;;;;;;;;5804316;28;20770;-67
2023/10/18 03:23:51;;;;;;;6.50;4.30;;;;;;;;;;5803210;28;20065;-67
2023/10/18 03:26:42;;;;;;;12.13;4.47;;;;;;;;;;5819115;28;20462;-67
2023/10/18 03:29:33;;;;;;;22.95;6.18;;;;;;;;;;5835467;28;20062;-67
2023/10/18 03:32:25;;;;;;;6.57;4.13;;;;;;;;;;5802960;28;20472;-67
2023/10/18 03:35:20;;;;;;;14.38;5.63;;;;;;;;;;5835176;28;20057;-67
2023/10/18 03:38:21;;;;;;;19.05;8.20;;;;;;;;;;5803148;28;20526;-67
2023/10/18 03:41:16;;;;;;;23.70;8.57;;;;;;;;;;5819002;28;20054;-67
2023/10/18 03:44:08;;;;;;;22.50;10.18;;;;;;;;;;5818753;28;20397;-67
2023/10/18 03:47:11;;;;;;;17.42;7.22;;;;;;;;;;5835347;28;20050;-67
2023/10/18 03:50:08;;;;;;;43.92;13.82;;;;;;;;;;5818774;28;20120;-67
2023/10/18 03:53:00;;;;;;;21.95;7.80;;;;;;;;;;5834613;28;20127;-67
2023/10/18 03:55:55;;;;;;;34.40;10.15;;;;;;;;;;5818988;28;20058;-67
2023/10/18 03:58:49;;;;;;;23.60;9.30;;;;;;;;;;5819804;28;20046;-67
2023/10/18 04:01:44;;;;;;;34.05;15.18;;;;;;;;;;5802484;28;20065;-67
2023/10/18 04:04:37;;;;;;;108.18;31.08;;;;;;;;;;5802825;28;20530;-67
2023/10/18 04:07:29;;;;;;;118.82;34.58;;;;;;;;;;5834440;28;20412;-67
2023/10/18 04:10:24;;;;;;;113.40;34.45;;;;;;;;;;5819583;28;20053;-67
2023/10/18 04:13:15;;;;;;;66.15;18.88;;;;;;;;;;5818211;28;20113;-67
2023/10/18 04:16:11;;;;;;;53.17;15.38;;;;;;;;;;5818830;28;20070;-69
2023/10/18 04:19:02;;;;;;;20.80;12.00;;;;;;;;;;5819450;28;20101;-68
2023/10/18 04:21:53;;;;;;;44.97;14.90;;;;;;;;;;5834666;28;20046;-67
2023/10/18 04:24:45;;;;;;;28.58;11.98;;;;;;;;;;5833996;28;20537;-67
2023/10/18 04:27:37;;;;;;;29.20;10.38;;;;;;;;;;5834204;28;20051;-67
2023/10/18 04:30:32;;;;;;;28.77;12.35;;;;;;;;;;5819158;28;20051;-67
2023/10/18 04:33:28;;;;;;;73.20;23.45;;;;;;;;;;5818462;28;20054;-67
2023/10/18 04:36:23;;;;;;;47.65;17.02;;;;;;;;;;5817765;28;20054;-67
2023/10/18 04:39:18;;;;;;;18.80;8.25;;;;;;;;;;5817838;28;20050;-67
2023/10/18 04:42:16;;;;;;;23.40;9.80;;;;;;;;;;5833621;28;20046;-67
2023/10/18 04:45:16;;;;;;;15.20;8.23;;;;;;;;;;5817629;28;20133;-68
2023/10/18 04:48:14;;;;;;;16.48;7.95;;;;;;;;;;5818456;28;20050;-68
2023/10/18 04:51:06;;;;;;;20.85;8.35;;;;;;;;;;5818967;28;20496;-67
2023/10/18 04:54:02;;;;;;;30.25;8.85;;;;;;;;;;5819011;28;20257;-67
2023/10/18 04:56:56;;;;;;;19.55;7.85;;;;;;;;;;5818222;28;20108;-67
2023/10/18 04:59:52;;;;;;;17.80;7.45;;;;;;;;;;5818278;28;20496;-67
2023/10/18 05:02:45;;;;;;;16.00;8.20;;;;;;;;;;5818234;28;20050;-67
2023/10/18 05:05:52;;;;;;;25.88;8.85;;;;;;;;;;5817338;28;20133;-67
2023/10/18 05:08:45;;;;;;;14.43;8.95;;;;;;;;;;5818128;28;20057;-67
2023/10/18 05:11:46;;;;;;;18.25;8.68;;;;;;;;;;5818200;28;20050;-67
2023/10/18 05:14:44;;;;;;;16.27;8.38;;;;;;;;;;5816880;28;20185;-67
2023/10/18 05:17:43;;;;;;;11.60;7.60;;;;;;;;;;5801955;28;20046;-66
2023/10/18 05:23:36;;;;;;;13.50;7.75;;;;;;;;;;5816568;28;20061;-66
2023/10/18 05:26:32;;;;;;;18.27;6.70;;;;;;;;;;5816400;28;20061;-67
2023/10/18 05:29:23;;;;;;;22.98;9.10;;;;;;;;;;5800778;28;20046;-67
2023/10/18 05:32:36;;;;;;;14.45;7.38;;;;;;;;;;5816493;28;20057;-67
2023/10/18 05:35:43;;;;;;;24.83;7.40;;;;;;;;;;5817812;28;20046;-67
2023/10/18 05:41:48;;;;;;;15.52;7.68;;;;;;;;;;5817374;28;20043;-66
2023/10/18 05:44:41;;;;;;;15.63;7.90;;;;;;;;;;5817267;28;20046;-67
2023/10/18 05:47:32;;;;;;;12.75;4.88;;;;;;;;;;5832136;28;20054;-67
2023/10/18 05:50:24;;;;;;;10.15;6.15;;;;;;;;;;5800126;28;20188;-67
2023/10/18 05:53:24;;;;;;;14.23;6.00;;;;;;;;;;5817186;28;20054;-67
2023/10/18 05:56:15;;;;;;;23.27;7.70;;;;;;;;;;5832245;28;20432;-67
2023/10/18 06:02:22;;;;;;;63.97;27.67;;;;;;;;;;5817202;28;20052;-67
2023/10/18 06:05:14;;;;;;;30.15;11.75;;;;;;;;;;5817471;28;20416;-66
2023/10/18 06:08:07;;;;;;;14.85;6.72;;;;;;;;;;5817164;28;20096;-67
2023/10/18 06:11:08;;;;;;;13.73;6.68;;;;;;;;;;5832678;28;20057;-66
2023/10/18 06:13:59;;;;;;;19.40;8.95;;;;;;;;;;5816232;28;20077;-66
2023/10/18 06:17:05;;;;;;;23.05;8.90;;;;;;;;;;5817171;28;20539;-67
2023/10/18 06:19:57;;;;;;;17.33;8.27;;;;;;;;;;5816286;28;20050;-66
2023/10/18 06:22:50;;;;;;;15.73;8.10;;;;;;;;;;5815714;28;20047;-67
2023/10/18 06:25:50;;;;;;;20.40;8.38;;;;;;;;;;5800065;28;20102;-67
2023/10/18 06:28:44;;;;;;;10.90;5.55;;;;;;;;;;5817008;28;20123;-67
2023/10/18 06:31:43;;;;;;;15.43;8.32;;;;;;;;;;5816920;28;20050;-67
2023/10/18 06:34:36;;;;;;;16.00;8.07;;;;;;;;;;5815677;28;20070;-67
2023/10/18 06:37:43;;;;;;;15.05;7.93;;;;;;;;;;5815590;28;20057;-67
2023/10/18 06:40:44;;;;;;;16.33;7.68;;;;;;;;;;5821190;28;20210;-67
2023/10/18 06:43:58;;;;;;;10.90;5.65;;;;;;;;;;5820547;28;20121;-67
2023/10/18 06:46:48;;;;;;;15.30;7.35;;;;;;;;;;5820123;28;20424;-67
2023/10/18 06:49:42;;;;;;;15.50;6.65;;;;;;;;;;5803907;28;20047;-68
2023/10/18 06:52:44;;;;;;;9.68;5.90;;;;;;;;;;5819876;28;20433;-68
2023/10/18 07:01:30;;;;;;;14.43;7.18;;;;;;;;;;5819708;28;20078;-68
2023/10/18 07:04:38;;;;;;;18.27;11.43;;;;;;;;;;5821014;28;20042;-68
2023/10/18 07:07:29;;;;;;;41.72;20.38;;;;;;;;;;5820787;28;20180;-68
2023/10/18 07:10:48;;;;;;;27.50;13.45;;;;;;;;;;5821034;28;20157;-68
2023/10/18 07:13:38;;;;;;;33.60;16.40;;;;;;;;;;5820761;28;20111;-68
2023/10/18 07:19:27;;;;;;;26.67;14.38;;;;;;;;;;5819435;28;20054;-68
2023/10/18 07:22:27;;;;;;;20.02;9.68;;;;;;;;;;5803780;28;20519;-68
2023/10/18 07:25:27;;;;;;;24.50;8.48;;;;;;;;;;5835503;28;20046;-68
2023/10/18 07:28:21;;;;;;;7.40;5.43;;;;;;;;;;5835068;28;20058;-68
2023/10/18 07:31:12;;;;;;;8.93;6.32;;;;;;;;;;5819224;28;20062;-68
2023/10/18 07:34:07;;;;;;;23.02;7.97;;;;;;;;;;5819086;28;20056;-67
2023/10/18 07:36:59;;;;;;;13.82;7.93;;;;;;;;;;5819604;28;20116;-67
2023/10/18 07:40:07;;;;;;;11.68;9.30;;;;;;;;;;5835318;28;20149;-68
2023/10/18 07:43:00;;;;;;;10.00;7.45;;;;;;;;;;5804739;28;20436;-68
2023/10/18 07:45:55;;;;;;;15.93;8.88;;;;;;;;;;5819049;28;20050;-67
2023/10/18 07:48:47;;;;;;;12.77;8.13;;;;;;;;;;5802499;28;20062;-67
2023/10/18 07:51:48;;;;;;;12.25;9.38;;;;;;;;;;5817683;28;20109;-68
2023/10/18 07:54:40;;;;;;;14.95;8.63;;;;;;;;;;5820028;28;20628;-67
2023/10/18 07:57:34;;;;;;;14.60;8.20;;;;;;;;;;5818415;28;20051;-68
2023/10/18 08:00:26;;;;;;;16.08;8.38;;;;;;;;;;5818386;28;20062;-68
2023/10/18 08:03:17;;;;;;;11.27;7.80;;;;;;;;;;5818137;28;20575;-68
2023/10/18 08:06:26;;;;;;;11.65;7.22;;;;;;;;;;5818309;28;20424;-68
2023/10/18 08:09:19;;;;;;;8.40;5.85;;;;;;;;;;5820657;28;20061;-68
2023/10/18 08:15:22;;;;;;;12.00;6.93;;;;;;;;;;5819554;28;20058;-68
2023/10/18 08:18:16;;;;;;;12.15;6.57;;;;;;;;;;5834190;28;20069;-68
2023/10/18 08:21:07;;;;;;;20.25;11.15;;;;;;;;;;5819167;28;20420;-68
2023/10/18 08:24:07;;;;;;;13.35;7.82;;;;;;;;;;5834509;28;20053;-68
2023/10/18 08:27:00;;;;;;;23.42;11.23;;;;;;;;;;5819370;28;20054;-68
2023/10/18 08:29:55;;;;;;;28.77;9.70;;;;;;;;;;5833902;28;20408;-68
2023/10/18 08:32:46;;;;;;;20.10;8.68;;;;;;;;;;5817726;28;20133;-68
2023/10/18 08:35:40;;;;;;;10.85;6.43;;;;;;;;;;5817731;28;20042;-68
2023/10/18 08:38:32;;;;;;;8.55;6.60;;;;;;;;;;5817469;28;20066;-68
2023/10/18 08:41:32;;;;;;;14.57;7.38;;;;;;;;;;5801867;28;20054;-68
2023/10/18 08:44:24;;;;;;;7.38;5.32;;;;;;;;;;5817226;28;20058;-68
2023/10/18 08:47:18;;;;;;;10.10;6.32;;;;;;;;;;5818539;28;20046;-68
2023/10/18 08:50:10;;;;;;;8.43;5.28;;;;;;;;;;5817556;28;20428;-68
2023/10/18 08:53:03;;;;;;;20.45;6.28;;;;;;;;;;5817499;28;20138;-69
2023/10/18 08:56:05;;;;;;;11.10;6.78;;;;;;;;;;5817714;28;20080;-67
2023/10/18 08:58:58;;;;;;;14.30;6.90;;;;;;;;;;5817365;28;20069;-68
2023/10/18 09:04:59;;;;;;;8.80;5.45;;;;;;;;;;5817434;28;20053;-68
2023/10/18 09:07:54;;;;;;;7.13;4.03;;;;;;;;;;5816941;28;20053;-68
2023/10/18 09:10:54;;;;;;;11.57;4.60;;;;;;;;;;5800896;28;20056;-68
2023/10/18 09:14:07;;;;;;;7.30;4.20;;;;;;;;;;5801312;28;20097;-67
2023/10/18 09:17:02;;;;;;;6.03;4.25;;;;;;;;;;5817379;28;20046;-68
2023/10/18 09:19:55;;;;;;;10.38;5.50;;;;;;;;;;5818499;28;20072;-68
2023/10/18 09:22:48;;;;;;;8.30;4.85;;;;;;;;;;5817716;28;20049;-68
2023/10/18 09:25:49;;;;;;;5.05;3.08;;;;;;;;;;5832778;28;20105;-67
2023/10/18 09:28:43;;;;;;;8.13;3.30;;;;;;;;;;5832613;28;20157;-68
2023/10/18 09:31:34;;;;;;;8.95;2.80;;;;;;;;;;5817656;28;20048;-67
2023/10/18 09:34:33;;;;;;;3.67;2.00;;;;;;;;;;5817642;28;20124;-67
2023/10/18 09:37:35;;;;;;;2.67;2.10;;;;;;;;;;5816304;28;20057;-68
2023/10/18 09:40:26;;;;;;;2.03;1.80;;;;;;;;;;5817410;28;20058;-68
2023/10/18 09:43:17;;;;;;;2.85;1.77;;;;;;;;;;5817363;28;20133;-68
2023/10/18 09:46:08;;;;;;;2.10;1.73;;;;;;;;;;5816181;28;20062;-68
2023/10/18 09:49:00;;;;;;;2.53;1.73;;;;;;;;;;5816527;28;20211;-68
2023/10/18 09:51:53;;;;;;;2.72;1.42;;;;;;;;;;5832525;28;20438;-68
2023/10/18 09:54:51;;;;;;;3.58;1.80;;;;;;;;;;5816026;28;20604;-67
2023/10/18 09:57:49;;;;;;;2.92;2.10;;;;;;;;;;5815967;28;20555;-68
2023/10/18 10:00:58;;;;;;;3.08;1.58;;;;;;;;;;5817717;28;20069;-68
2023/10/18 10:03:52;;;;;;;3.45;2.38;;;;;;;;;;5817212;28;20042;-68
2023/10/18 10:06:46;;;;;;;4.40;2.90;;;;;;;;;;5816037;28;20054;-68
2023/10/18 10:09:38;;;;;;;3.95;1.88;;;;;;;;;;5817071;28;20508;-68
2023/10/18 10:12:31;;;;;;;3.35;1.65;;;;;;;;;;5815879;28;20049;-68
2023/10/18 10:15:24;;;;;;;2.95;1.90;;;;;;;;;;5831581;28;20054;-68
2023/10/18 10:18:18;;;;;;;2.58;1.98;;;;;;;;;;5815879;28;20132;-68
2023/10/18 10:21:12;;;;;;;2.90;1.73;;;;;;;;;;5800273;28;20050;-68
2023/10/18 10:24:14;;;;;;;1.65;1.55;;;;;;;;;;5799867;28;20420;-68
2023/10/18 10:33:13;;;;;;;3.28;2.30;;;;;;;;;;5815687;28;20050;-68
2023/10/18 10:36:05;;;;;;;2.67;2.17;;;;;;;;;;5815619;28;20566;-68
2023/10/18 10:38:56;;;;;;;5.55;2.95;;;;;;;;;;5816196;28;20598;-67
2023/10/18 10:41:48;;;;;;;2.20;1.67;;;;;;;;;;5832007;28;20046;-68
2023/10/18 10:45:07;;;;;;;3.00;1.73;;;;;;;;;;5815320;28;20053;-68
2023/10/18 10:51:13;;;;;;;;;;;;;;;;;;5817077;28;20515;-68
2023/10/18 10:54:07;;;;;;;3.60;2.08;;;;;;;;;;5815510;28;19921;-69
2023/10/18 10:57:00;;;;;;;6.13;2.67;;;;;;;;;;5816257;28;20065;-67
2023/10/18 10:59:52;;;;;;;2.28;1.75;;;;;;;;;;5799828;28;20093;-68
2023/10/18 11:02:45;;;;;;;4.28;2.58;;;;;;;;;;5815372;28;20054;-68
2023/10/18 11:05:37;;;;;;;6.80;2.38;;;;;;;;;;5815323;28;20050;-68
2023/10/18 11:08:29;;;;;;;3.20;2.70;;;;;;;;;;5815709;28;20085;-68
2023/10/18 11:11:26;;;;;;;1.35;1.23;;;;;;;;;;5816624;28;20078;-68
2023/10/18 11:14:22;;;;;;;2.75;2.10;;;;;;;;;;5816718;28;20556;-68
2023/10/18 11:20:19;;;;;;;2.72;1.67;;;;;;;;;;5816951;28;20397;-69
2023/10/18 11:23:10;;;;;;;3.53;2.28;;;;;;;;;;5816761;28;20412;-67
2023/10/18 11:26:08;;;;;;;14.18;6.43;;;;;;;;;;5818055;28;20061;-69
2023/10/18 11:28:59;;;;;;;2.55;2.20;;;;;;;;;;5819846;28;20046;-69
2023/10/18 11:31:58;;;;;;;8.55;5.18;;;;;;;;;;5803067;28;20680;-69
2023/10/18 11:35:02;;;;;;;3.75;2.30;;;;;;;;;;5820838;28;20050;-68
2023/10/18 11:37:55;;;;;;;10.15;3.35;;;;;;;;;;5819552;28;20054;-68
2023/10/18 11:40:52;;;;;;;3.38;2.05;;;;;;;;;;5819491;28;20054;-69
2023/10/18 11:43:51;;;;;;;3.05;1.48;;;;;;;;;;5819060;28;20053;-69
2023/10/18 11:46:46;;;;;;;6.03;2.33;;;;;;;;;;5819138;28;20050;-68
2023/10/18 11:49:39;;;;;;;3.50;1.90;;;;;;;;;;5818686;28;20440;-69
2023/10/18 11:52:30;;;;;;;3.05;1.80;;;;;;;;;;5819042;28;20046;-69
2023/10/18 11:55:21;;;;;;;8.98;3.22;;;;;;;;;;5818997;28;20046;-70
2023/10/18 11:58:14;;;;;;;3.35;2.38;;;;;;;;;;5820282;28;20081;-69
2023/10/18 12:01:19;;;;;;;2.95;2.47;;;;;;;;;;5818909;28;20061;-69
2023/10/18 12:04:15;;;;;;;7.60;2.88;;;;;;;;;;5819959;28;20073;-69
2023/10/18 12:07:08;;;;;;;3.33;2.30;;;;;;;;;;5803350;28;20042;-70
2023/10/18 12:10:01;;;;;;;3.15;1.83;;;;;;;;;;5803190;28;20046;-69
2023/10/18 12:12:52;;;;;;;2.50;1.63;;;;;;;;;;5820190;28;20093;-69
2023/10/18 12:15:43;;;;;;;3.00;2.33;;;;;;;;;;5818439;28;20522;-69
2023/10/18 12:18:35;;;;;;;5.15;2.78;;;;;;;;;;5819905;28;20050;-69
2023/10/18 12:21:29;;;;;;;4.20;2.40;;;;;;;;;;5818322;28;20467;-69
2023/10/18 12:24:22;;;;;;;5.63;2.35;;;;;;;;;;5818599;28;20077;-69
2023/10/18 12:27:21;;;;;;;4.22;1.95;;;;;;;;;;5818098;28;20065;-69
2023/10/18 12:30:27;;;;;;;5.63;2.50;;;;;;;;;;5818239;28;20057;-69
2023/10/18 12:33:28;;;;;;;3.80;2.50;;;;;;;;;;5817803;28;20140;-69
2023/10/18 12:36:32;;;;;;;3.53;2.13;;;;;;;;;;5818933;28;20126;-69
2023/10/18 12:39:25;;;;;;;2.42;2.15;;;;;;;;;;5818104;28;20567;-69
2023/10/18 12:42:19;;;;;;;3.25;2.50;;;;;;;;;;5817954;28;20058;-69
2023/10/18 12:45:18;;;;;;;6.45;2.83;;;;;;;;;;5818825;28;20096;-70
2023/10/18 12:48:09;;;;;;;3.22;2.33;;;;;;;;;;5817578;28;20054;-70
2023/10/18 12:51:08;;;;;;;9.60;3.22;;;;;;;;;;5819073;28;20434;-70
2023/10/18 12:54:02;;;;;;;24.67;12.35;;;;;;;;;;5819453;28;20047;-69
2023/10/18 12:56:58;;;;;;;6.65;4.03;;;;;;;;;;5819086;28;20500;-69
2023/10/18 13:05:46;;;;;;;7.93;2.58;;;;;;;;;;5818363;28;20128;-70
2023/10/18 13:08:37;;;;;;;4.95;3.05;;;;;;;;;;5830907;28;20538;-69
2023/10/18 13:11:44;;;;;;;7.40;3.22;;;;;;;;;;5842397;28;20381;-69
2023/10/18 13:14:35;;;;;;;10.82;6.25;;;;;;;;;;5818177;28;20050;-69
2023/10/18 13:17:26;;;;;;;4.35;2.78;;;;;;;;;;5824848;28;20072;-69
2023/10/18 13:20:24;;;;;;;5.03;2.25;;;;;;;;;;5841997;28;20123;-70
2023/10/18 13:23:18;;;;;;;13.05;2.20;;;;;;;;;;5841552;28;20128;-69
2023/10/18 13:26:10;;;;;;;9.23;2.85;;;;;;;;;;5840372;28;20049;-70
2023/10/18 13:29:02;;;;;;;9.02;3.00;;;;;;;;;;5839850;28;20128;-73
2023/10/18 13:31:59;;;;;;;16.50;10.75;;;;;;;;;;5841102;28;20046;-69
2023/10/18 13:34:50;;;;;;;14.40;2.88;;;;;;;;;;5841758;28;20046;-69
2023/10/18 13:37:43;;;;;;;2.95;1.88;;;;;;;;;;5841148;28;20124;-68
2023/10/18 13:40:36;;;;;;;3.90;2.00;;;;;;;;;;5841355;28;20046;-69
2023/10/18 13:43:28;;;;;;;7.93;4.95;;;;;;;;;;5840140;28;20087;-69
2023/10/18 13:46:19;;;;;;;6.35;3.00;;;;;;;;;;5839642;28;20042;-69
2023/10/18 13:49:12;;;;;;;13.77;7.05;;;;;;;;;;5837714;28;20050;-69
2023/10/18 13:52:05;;;;;;;5.05;3.42;;;;;;;;;;5838345;28;20069;-69
2023/10/18 13:54:55;;;;;;;4.00;2.28;;;;;;;;;;5840326;28;20054;-69
2023/10/18 13:57:46;;;;;;;4.05;2.47;;;;;;;;;;5823729;28;20053;-69
2023/10/18 14:00:40;;;;;;;4.40;2.33;;;;;;;;;;5840667;28;20049;-69
2023/10/18 14:03:32;;;;;;;18.50;9.57;;;;;;;;;;5840230;28;20046;-69
2023/10/18 14:06:26;;;;;;;43.72;22.85;;;;;;;;;;5840632;28;20427;-70
2023/10/18 14:09:36;;;;;;;5.38;3.38;;;;;;;;;;5839299;28;20060;-70
2023/10/18 14:12:28;;;;;;;8.65;4.40;;;;;;;;;;5837358;28;20467;-69
2023/10/18 14:15:19;;;;;;;5.65;3.25;;;;;;;;;;5831595;28;20053;-69
2023/10/18 14:18:10;;;;;;;10.00;3.30;;;;;;;;;;5838087;28;20046;-69
2023/10/18 14:21:04;;;;;;;2.83;2.45;;;;;;;;;;5839787;28;20049;-70
2023/10/18 14:23:59;;;;;;;3.50;2.72;;;;;;;;;;5839150;28;20471;-69
2023/10/18 14:26:51;;;;;;;6.22;3.72;;;;;;;;;;5823177;28;20501;-69
2023/10/18 14:29:46;;;;;;;19.52;4.95;;;;;;;;;;5838601;28;20447;-69
2023/10/18 14:32:36;;;;;;;14.95;5.15;;;;;;;;;;5838481;28;20053;-69
2023/10/18 14:35:27;;;;;;;14.20;5.72;;;;;;;;;;5838466;28;20049;-69
2023/10/18 14:38:18;;;;;;;11.82;5.57;;;;;;;;;;5821318;28;20056;-69
2023/10/18 14:41:21;;;;;;;9.65;3.60;;;;;;;;;;5822384;28;20503;-70
2023/10/18 14:44:22;;;;;;;5.32;2.83;;;;;;;;;;5824054;28;20054;-69
2023/10/18 14:47:13;;;;;;;6.85;3.65;;;;;;;;;;5839473;28;20499;-71
2023/10/18 14:50:06;;;;;;;3.35;1.98;;;;;;;;;;5838324;28;20054;-69
2023/10/18 14:52:57;;;;;;;15.23;6.93;;;;;;;;;;5840127;28;20050;-69
2023/10/18 14:55:48;;;;;;;11.32;6.95;;;;;;;;;;5838432;28;20046;-69
2023/10/18 14:58:45;;;;;;;9.57;5.53;;;;;;;;;;5839224;28;20046;-69
2023/10/18 15:01:36;;;;;;;15.02;5.88;;;;;;;;;;5842367;28;20415;-69
2023/10/18 15:04:27;;;;;;;12.23;6.95;;;;;;;;;;5842303;28;20045;-69
2023/10/18 15:07:18;;;;;;;5.47;3.78;;;;;;;;;;5842583;28;20058;-69
2023/10/18 15:10:09;;;;;;;11.23;6.10;;;;;;;;;;5841670;28;20050;-69
2023/10/18 15:13:02;;;;;;;12.75;6.53;;;;;;;;;;5842732;28;20064;-69
2023/10/18 15:15:53;;;;;;;39.50;12.80;;;;;;;;;;5826840;28;20050;-69
2023/10/18 15:18:48;;;;;;;12.40;5.40;;;;;;;;;;5842071;28;20141;-68
2023/10/18 15:21:39;;;;;;;11.38;5.25;;;;;;;;;;5842222;28;20133;-69
2023/10/18 15:24:40;;;;;;;8.00;4.72;;;;;;;;;;5842275;28;20049;-69
2023/10/18 15:27:32;;;;;;;13.00;7.45;;;;;;;;;;5841802;28;20046;-68
2023/10/18 15:30:24;;;;;;;13.27;6.88;;;;;;;;;;5842057;28;20050;-68
2023/10/18 15:33:19;;;;;;;13.63;5.85;;;;;;;;;;5843448;28;20049;-68
2023/10/18 15:36:31;;;;;;;17.90;9.38;;;;;;;;;;5841928;28;20500;-68
2023/10/18 15:39:23;;;;;;;33.88;10.10;;;;;;;;;;5842131;28;20050;-68
2023/10/18 15:42:14;;;;;;;6.68;4.03;;;;;;;;;;5841226;28;20046;-68
2023/10/18 15:45:05;;;;;;;12.75;4.95;;;;;;;;;;5841783;28;20065;-69
2023/10/18 15:47:56;;;;;;;15.38;7.32;;;;;;;;;;5843419;28;20777;-68
2023/10/18 15:50:47;;;;;;;10.23;6.85;;;;;;;;;;5843265;28;20058;-69
2023/10/18 15:53:37;;;;;;;17.00;7.90;;;;;;;;;;5825581;28;20046;-69
2023/10/18 15:56:45;;;;;;;78.70;33.30;;;;;;;;;;5841934;28;20132;-68
2023/10/18 15:59:36;;;;;;;38.75;13.40;;;;;;;;;;5825210;28;20057;-69
2023/10/18 16:02:27;;;;;;;24.67;11.90;;;;;;;;;;5842657;28;20077;-69
2023/10/18 16:05:24;;;;;;;13.95;8.38;;;;;;;;;;5842616;28;20046;-69
2023/10/18 16:08:21;;;;;;;17.00;7.95;;;;;;;;;;5838108;28;20117;-69
2023/10/18 16:11:15;;;;;;;27.65;20.25;;;;;;;;;;5841633;28;20166;-69
2023/10/18 16:14:07;;;;;;;22.38;10.93;;;;;;;;;;5841226;28;20048;-69
2023/10/18 16:17:00;;;;;;;13.18;10.10;;;;;;;;;;5824686;28;20074;-68
2023/10/18 16:19:52;;;;;;;12.48;7.72;;;;;;;;;;5843154;28;20057;-69
2023/10/18 16:22:45;;;;;;;24.05;13.20;;;;;;;;;;5842509;28;20410;-69
2023/10/18 16:25:41;;;;;;;16.33;11.30;;;;;;;;;;5842212;28;20068;-69
2023/10/18 16:28:31;;;;;;;17.20;10.80;;;;;;;;;;5825500;28;20045;-69
2023/10/18 16:31:24;;;;;;;14.27;8.32;;;;;;;;;;5843218;28;20377;-69
2023/10/18 16:34:16;;;;;;;14.77;7.38;;;;;;;;;;5825822;28;20046;-68
2023/10/18 16:37:08;;;;;;;23.35;11.38;;;;;;;;;;5815731;28;20054;-69
2023/10/18 16:39:59;;;;;;;17.90;11.18;;;;;;;;;;5850284;28;20423;-68
2023/10/18 16:42:50;;;;;;;13.73;11.10;;;;;;;;;;5835933;28;20058;-68
2023/10/18 16:45:41;;;;;;;15.93;10.07;;;;;;;;;;5841833;28;20058;-69
2023/10/18 16:48:34;;;;;;;22.30;11.80;;;;;;;;;;5824519;28;20060;-68
2023/10/18 16:51:25;;;;;;;19.63;12.35;;;;;;;;;;5840815;28;20049;-69
2023/10/18 16:54:16;;;;;;;20.75;10.82;;;;;;;;;;5825265;28;20133;-68
2023/10/18 16:57:08;;;;;;;22.23;11.98;;;;;;;;;;5841139;28;20419;-69
2023/10/18 16:59:59;;;;;;;15.63;10.77;;;;;;;;;;5841241;28;20046;-68
2023/10/18 17:02:50;;;;;;;29.08;13.75;;;;;;;;;;5841191;28;20069;-68
2023/10/18 17:05:44;;;;;;;19.40;10.05;;;;;;;;;;5840247;28;20061;-68
2023/10/18 17:08:36;;;;;;;22.48;13.00;;;;;;;;;;5840350;28;20499;-68
2023/10/18 17:11:27;;;;;;;40.25;20.73;;;;;;;;;;5840710;28;20054;-68
2023/10/18 17:14:18;;;;;;;34.75;19.38;;;;;;;;;;5824550;28;20053;-68
2023/10/18 17:17:09;;;;;;;31.15;16.27;;;;;;;;;;5841715;28;20052;-68
2023/10/18 17:20:06;;;;;;;48.60;24.95;;;;;;;;;;5824263;28;20073;-74
2023/10/18 17:22:57;;;;;;;52.65;35.38;;;;;;;;;;5840422;28;20050;-68
2023/10/18 17:25:48;;;;;;;42.42;28.25;;;;;;;;;;5840523;28;20046;-68
2023/10/18 17:28:40;;;;;;;34.40;19.90;;;;;;;;;;5840318;28;20057;-68
2023/10/18 17:31:34;;;;;;;23.95;15.40;;;;;;;;;;5824319;28;20050;-68
2023/10/18 17:34:25;;;;;;;16.23;12.25;;;;;;;;;;5840417;28;20403;-68
2023/10/18 17:37:16;;;;;;;19.90;14.48;;;;;;;;;;5823407;28;20525;-69
2023/10/18 17:40:08;;;;;;;23.55;16.00;;;;;;;;;;5839770;28;20049;-69
2023/10/18 17:42:59;;;;;;;47.38;22.20;;;;;;;;;;5824348;28;20491;-68
2023/10/18 17:45:50;;;;;;;32.33;18.80;;;;;;;;;;5840299;28;20049;-68
2023/10/18 17:48:41;;;;;;;26.42;15.10;;;;;;;;;;5839686;28;20049;-68
2023/10/18 17:51:33;;;;;;;25.55;14.23;;;;;;;;;;5839217;28;20045;-68
2023/10/18 17:54:26;;;;;;;20.33;12.40;;;;;;;;;;5824071;28;20049;-68
2023/10/18 17:57:18;;;;;;;23.25;11.60;;;;;;;;;;5823602;28;20050;-68
2023/10/18 18:00:19;;;;;;;27.30;12.68;;;;;;;;;;5839581;28;20267;-68